createdAt,value
2022-07-28T00:01:01.229Z,46.83
2022-07-28T00:03:28.963Z,46.73
2022-07-28T00:05:56.604Z,46.63
2022-07-28T00:08:24.220Z,46.67
2022-07-28T00:10:53.181Z,46.96
2022-07-28T00:13:20.825Z,46.73
2022-07-28T00:15:48.550Z,47.40
2022-07-28T00:18:16.280Z,47.06
2022-07-28T00:20:43.870Z,47.09
2022-07-28T00:23:11.718Z,47.04
2022-07-28T00:25:39.351Z,47.13
2022-07-28T00:28:08.445Z,47.39
2022-07-28T00:30:36.336Z,46.78
2022-07-28T00:33:04.628Z,46.51
2022-07-28T00:35:32.506Z,46.73
2022-07-28T00:38:01.423Z,46.78
2022-07-28T00:40:43.285Z,47.20
2022-07-28T00:43:12.292Z,47.11
2022-07-28T00:45:39.997Z,47.01
2022-07-28T00:48:07.689Z,47.00
2022-07-28T00:50:35.376Z,47.08
2022-07-28T00:53:02.964Z,47.21
2022-07-28T00:55:32.421Z,46.80
2022-07-28T00:58:21.314Z,47.24
2022-07-28T01:00:49.027Z,46.90
2022-07-28T01:03:16.713Z,47.11
2022-07-28T01:05:53.879Z,47.14
2022-07-28T01:08:30.801Z,47.38
2022-07-28T01:11:05.072Z,47.66
2022-07-28T01:13:43.758Z,47.61
2022-07-28T01:16:11.637Z,47.68
2022-07-28T01:18:44.571Z,48.30
2022-07-28T01:21:14.398Z,47.49
2022-07-28T01:23:55.172Z,47.19
2022-07-28T01:26:36.601Z,48.06
2022-07-28T01:29:22.374Z,47.86
2022-07-28T01:31:57.315Z,47.96
2022-07-28T01:34:30.672Z,48.34
2022-07-28T01:37:06.253Z,47.88
2022-07-28T01:39:36.867Z,47.75
2022-07-28T01:42:07.735Z,47.89
2022-07-28T01:44:39.297Z,47.67
2022-07-28T01:47:09.291Z,47.74
2022-07-28T01:49:38.823Z,47.81
2022-07-28T01:52:10.187Z,47.81
2022-07-28T01:54:41.391Z,48.03
2022-07-28T01:57:14.545Z,47.94
2022-07-28T01:59:43.676Z,47.83
2022-07-28T02:02:14.352Z,47.66
2022-07-28T02:04:43.617Z,48.27
2022-07-28T02:07:13.385Z,48.29
2022-07-28T02:09:43.374Z,48.34
2022-07-28T02:12:13.626Z,48.28
2022-07-28T02:14:42.410Z,48.53
2022-07-28T02:17:13.863Z,48.28
2022-07-28T02:19:45.851Z,48.51
2022-07-28T02:22:15.060Z,48.87
2022-07-28T02:24:45.995Z,49.02
2022-07-28T02:27:20.337Z,48.83
2022-07-28T02:29:53.867Z,48.49
2022-07-28T02:32:30.172Z,48.57
2022-07-28T02:35:05.368Z,48.85
2022-07-28T02:37:37.339Z,49.03
2022-07-28T02:40:06.965Z,48.69
2022-07-28T02:42:37.535Z,48.82
2022-07-28T02:45:09.302Z,48.52
2022-07-28T02:47:45.029Z,48.92
2022-07-28T02:50:15.276Z,49.21
2022-07-28T02:52:45.615Z,49.45
2022-07-28T02:55:16.668Z,48.73
2022-07-28T02:57:45.260Z,49.27
2022-07-28T03:00:14.464Z,49.36
2022-07-28T03:02:46.753Z,48.95
2022-07-28T03:05:16.039Z,48.73
2022-07-28T03:07:50.459Z,48.99
2022-07-28T03:10:32.916Z,49.80
2022-07-28T03:13:02.843Z,49.35
2022-07-28T03:15:31.146Z,49.36
2022-07-28T03:18:00.388Z,49.87
2022-07-28T03:20:28.387Z,49.89
2022-07-28T03:22:56.309Z,49.71
2022-07-28T03:25:40.537Z,49.89
2022-07-28T03:28:11.361Z,49.91
2022-07-28T03:30:42.987Z,49.63
2022-07-28T03:33:12.830Z,49.87
2022-07-28T03:35:44.781Z,50.07
2022-07-28T03:38:17.757Z,50.37
2022-07-28T03:40:47.362Z,50.44
2022-07-28T03:43:17.624Z,50.16
2022-07-28T03:45:47.735Z,49.78
2022-07-28T03:48:16.965Z,49.82
2022-07-28T03:50:44.514Z,50.00
2022-07-28T03:53:19.043Z,50.01
2022-07-28T03:55:50.568Z,50.08
2022-07-28T03:58:18.308Z,50.17
2022-07-28T04:00:45.874Z,49.97
2022-07-28T04:03:35.913Z,49.99
2022-07-28T04:06:03.183Z,50.32
2022-07-28T04:08:30.796Z,50.98
2022-07-28T04:10:58.474Z,50.04
2022-07-28T04:13:26.094Z,49.39
2022-07-28T04:15:53.782Z,50.06
2022-07-28T04:18:21.378Z,49.39
2022-07-28T04:20:49.136Z,49.83
2022-07-28T04:23:19.609Z,49.59
2022-07-28T04:25:47.387Z,50.35
2022-07-28T04:28:15.493Z,50.44
2022-07-28T04:30:43.966Z,50.70
2022-07-28T04:33:12.135Z,50.82
2022-07-28T04:35:39.673Z,50.65
2022-07-28T04:38:07.755Z,51.33
2022-07-28T04:40:36.716Z,50.88
2022-07-28T04:43:04.695Z,51.34
2022-07-28T04:45:32.518Z,52.13
2022-07-28T04:48:00.418Z,52.79
2022-07-28T04:50:28.010Z,51.87
2022-07-28T04:52:55.619Z,51.19
2022-07-28T04:55:23.284Z,51.46
2022-07-28T04:57:52.452Z,51.48
2022-07-28T05:00:22.118Z,51.39
2022-07-28T05:02:51.586Z,51.55
2022-07-28T05:05:19.233Z,51.44
2022-07-28T05:07:46.787Z,51.96
2022-07-28T05:10:14.367Z,51.77
2022-07-28T05:12:42.297Z,51.64
2022-07-28T05:15:11.640Z,51.33
2022-07-28T05:17:39.644Z,50.89
2022-07-28T05:20:08.931Z,50.73
2022-07-28T05:22:44.149Z,50.93
2022-07-28T05:25:16.509Z,49.30
2022-07-28T05:27:44.307Z,50.78
2022-07-28T05:30:14.499Z,50.11
2022-07-28T05:32:42.765Z,48.14
2022-07-28T05:35:11.062Z,47.14
2022-07-28T05:37:39.146Z,47.20
2022-07-28T05:40:13.611Z,48.86
2022-07-28T05:42:41.755Z,48.07
2022-07-28T05:45:16.659Z,48.07
2022-07-28T05:47:47.934Z,47.82
2022-07-28T05:50:16.166Z,47.54
2022-07-28T05:52:43.909Z,46.20
2022-07-28T05:55:12.176Z,45.19
2022-07-28T05:57:40.493Z,46.08
2022-07-28T06:00:09.836Z,45.47
2022-07-28T06:02:38.235Z,45.60
2022-07-28T06:05:08.410Z,44.77
2022-07-28T06:07:43.462Z,45.28
2022-07-28T06:10:12.820Z,44.59
2022-07-28T06:12:41.901Z,43.49
2022-07-28T06:15:14.796Z,42.74
2022-07-28T06:17:42.506Z,42.55
2022-07-28T06:20:13.327Z,42.78
2022-07-28T06:22:44.908Z,43.30
2022-07-28T06:25:16.548Z,43.72
2022-07-28T06:27:46.342Z,44.21
2022-07-28T06:30:14.615Z,43.93
2022-07-28T06:32:42.454Z,44.07
2022-07-28T06:35:12.075Z,43.93
2022-07-28T06:37:39.690Z,44.35
2022-07-28T06:40:08.945Z,43.77
2022-07-28T06:42:36.610Z,42.92
2022-07-28T06:45:05.205Z,43.88
2022-07-28T06:47:33.354Z,44.10
2022-07-28T06:50:01.096Z,43.96
2022-07-28T06:52:30.072Z,43.55
2022-07-28T06:54:58.366Z,43.96
2022-07-28T06:57:33.399Z,43.68
2022-07-28T07:00:02.521Z,43.18
2022-07-28T07:02:30.151Z,43.35
2022-07-28T07:04:57.765Z,42.91
2022-07-28T07:07:26.288Z,42.02
2022-07-28T07:09:55.236Z,41.83
2022-07-28T07:12:22.914Z,41.06
2022-07-28T07:14:50.587Z,41.89
2022-07-28T07:17:18.297Z,41.69
2022-07-28T07:19:45.919Z,41.57
2022-07-28T07:22:14.633Z,41.33
2022-07-28T07:24:42.475Z,42.10
2022-07-28T07:27:11.375Z,42.35
2022-07-28T07:29:39.008Z,41.91
2022-07-28T07:32:10.715Z,41.74
2022-07-28T07:34:40.397Z,41.49
2022-07-28T07:37:12.020Z,41.42
2022-07-28T07:39:39.605Z,41.84
2022-07-28T07:42:07.786Z,41.79
2022-07-28T07:44:36.723Z,41.63
2022-07-28T07:47:04.746Z,41.85
2022-07-28T07:49:45.594Z,41.52
2022-07-28T07:52:14.169Z,41.70
2022-07-28T07:54:42.136Z,41.08
2022-07-28T07:57:10.629Z,41.26
2022-07-28T07:59:39.594Z,39.82
2022-07-28T08:02:07.616Z,39.67
2022-07-28T08:04:37.093Z,39.74
2022-07-28T08:07:05.742Z,38.82
2022-07-28T08:09:33.671Z,40.73
2022-07-28T08:12:01.343Z,40.60
2022-07-28T08:14:29.259Z,37.99
2022-07-28T08:16:59.301Z,38.23
2022-07-28T08:19:27.467Z,38.13
2022-07-28T08:21:56.311Z,37.50
2022-07-28T08:24:32.606Z,36.78
2022-07-28T08:27:01.618Z,37.51
2022-07-28T08:29:29.121Z,37.22
2022-07-28T08:31:58.058Z,37.34
2022-07-28T08:34:29.908Z,37.00
2022-07-28T08:37:01.495Z,37.20
2022-07-28T08:39:29.000Z,37.30
2022-07-28T08:42:00.048Z,36.95
2022-07-28T08:44:29.463Z,36.48
2022-07-28T08:46:58.436Z,36.60
2022-07-28T08:49:26.159Z,35.44
2022-07-28T08:51:54.263Z,35.56
2022-07-28T08:54:23.672Z,35.39
2022-07-28T08:56:51.288Z,35.21
2022-07-28T08:59:18.968Z,36.75
2022-07-28T09:01:46.537Z,37.03
2022-07-28T09:04:15.912Z,36.47
2022-07-28T09:06:43.751Z,36.29
2022-07-28T09:09:11.321Z,36.76
2022-07-28T09:11:39.654Z,36.45
2022-07-28T09:14:07.194Z,36.69
2022-07-28T09:16:34.863Z,35.92
2022-07-28T09:19:02.344Z,34.79
2022-07-28T09:21:31.249Z,34.53
2022-07-28T09:23:58.901Z,34.20
2022-07-28T09:26:26.498Z,34.74
2022-07-28T09:28:55.795Z,36.32
2022-07-28T09:31:24.888Z,36.70
2022-07-28T09:33:57.697Z,37.23
2022-07-28T09:36:25.763Z,35.38
2022-07-28T09:38:56.532Z,34.54
2022-07-28T09:41:26.118Z,34.43
2022-07-28T09:43:55.774Z,34.59
2022-07-28T09:46:25.335Z,35.41
2022-07-28T09:48:59.044Z,35.80
2022-07-28T09:51:29.077Z,36.20
2022-07-28T09:54:08.977Z,36.06
2022-07-28T09:56:36.751Z,35.99
2022-07-28T09:59:04.621Z,36.29
2022-07-28T10:01:33.958Z,36.60
2022-07-28T10:04:05.203Z,35.79
2022-07-28T10:06:34.676Z,35.59
2022-07-28T10:09:05.441Z,34.14
2022-07-28T10:11:35.388Z,34.95
2022-07-28T10:14:08.079Z,35.39
2022-07-28T10:16:38.192Z,35.08
2022-07-28T10:19:06.805Z,34.60
2022-07-28T10:21:41.023Z,34.89
2022-07-28T10:24:15.268Z,35.30
2022-07-28T10:26:45.965Z,34.94
2022-07-28T10:29:16.234Z,35.23
2022-07-28T10:31:50.860Z,35.81
2022-07-28T10:34:24.937Z,36.22
2022-07-28T10:36:55.673Z,34.50
2022-07-28T10:39:29.751Z,34.30
2022-07-28T10:41:57.602Z,33.97
2022-07-28T10:44:26.030Z,34.29
2022-07-28T10:46:54.178Z,33.49
2022-07-28T10:49:22.109Z,34.01
2022-07-28T10:52:08.913Z,33.49
2022-07-28T10:54:50.505Z,33.41
2022-07-28T10:57:19.214Z,33.71
2022-07-28T11:00:13.403Z,32.20
2022-07-28T11:02:51.313Z,30.98
2022-07-28T11:05:27.261Z,30.89
2022-07-28T11:07:55.311Z,31.76
2022-07-28T11:10:25.271Z,32.07
2022-07-28T11:12:54.588Z,31.91
2022-07-28T11:15:28.106Z,32.46
2022-07-28T11:18:01.175Z,31.57
2022-07-28T11:21:07.927Z,31.00
2022-07-28T11:23:47.728Z,30.33
2022-07-28T11:26:37.139Z,30.81
2022-07-28T11:29:25.740Z,31.41
2022-07-28T11:32:17.154Z,31.16
2022-07-28T11:35:07.430Z,31.10
2022-07-28T11:38:12.048Z,31.33
2022-07-28T11:40:42.877Z,31.53
2022-07-28T11:43:36.775Z,32.69
2022-07-28T11:46:38.621Z,32.48
2022-07-28T11:49:25.017Z,31.89
2022-07-28T11:52:14.021Z,30.86
2022-07-28T11:54:44.529Z,31.52
2022-07-28T11:57:12.924Z,30.70
2022-07-28T11:59:49.750Z,30.21
2022-07-28T12:02:23.693Z,30.37
2022-07-28T12:05:12.659Z,30.46
2022-07-28T12:07:43.085Z,30.25
2022-07-28T12:11:00.415Z,30.71
2022-07-28T12:13:27.475Z,29.50
2022-07-28T12:15:56.581Z,29.33
2022-07-28T12:18:24.811Z,28.67
2022-07-28T12:20:54.592Z,28.92
2022-07-28T12:23:38.702Z,29.04
2022-07-28T12:26:13.535Z,28.95
2022-07-28T12:28:50.415Z,28.41
2022-07-28T12:31:19.511Z,27.69
2022-07-28T12:33:47.258Z,28.63
2022-07-28T12:36:18.868Z,28.74
2022-07-28T12:38:47.009Z,28.31
2022-07-28T12:41:16.043Z,28.97
2022-07-28T12:43:51.060Z,29.43
2022-07-28T12:46:25.040Z,29.72
2022-07-28T12:48:57.493Z,29.71
2022-07-28T12:51:36.495Z,29.24
2022-07-28T12:54:06.347Z,29.33
2022-07-28T12:56:45.618Z,29.45
2022-07-28T12:59:14.084Z,30.32
2022-07-28T13:01:51.315Z,30.92
2022-07-28T13:04:39.157Z,30.41
2022-07-28T13:07:10.050Z,30.85
2022-07-28T13:09:41.540Z,30.64
2022-07-28T13:12:20.052Z,30.13
2022-07-28T13:14:51.873Z,30.65
2022-07-28T13:17:22.055Z,30.77
2022-07-28T13:19:50.581Z,30.29
2022-07-28T13:22:26.637Z,30.76
2022-07-28T13:24:54.599Z,30.88
2022-07-28T13:27:22.247Z,31.21
2022-07-28T13:29:50.492Z,30.76
2022-07-28T13:32:18.307Z,31.06
2022-07-28T13:34:50.703Z,30.96
2022-07-28T13:37:18.935Z,31.22
2022-07-28T13:39:54.153Z,31.62
2022-07-28T13:42:23.620Z,31.63
2022-07-28T13:44:51.517Z,31.56
2022-07-28T13:47:19.136Z,32.08
2022-07-28T13:49:48.453Z,31.76
2022-07-28T13:52:32.666Z,31.38
2022-07-28T13:55:03.995Z,31.37
2022-07-28T13:57:32.213Z,31.52
2022-07-28T14:00:06.740Z,32.05
2022-07-28T14:02:35.804Z,31.45
2022-07-28T14:05:06.456Z,31.94
2022-07-28T14:07:34.326Z,31.92
2022-07-28T14:10:01.973Z,31.83
2022-07-28T14:12:30.248Z,31.93
2022-07-28T14:14:57.835Z,32.35
2022-07-28T14:17:43.510Z,32.17
2022-07-28T14:20:15.350Z,32.35
2022-07-28T14:22:43.703Z,32.25
2022-07-28T14:25:11.742Z,32.64
2022-07-28T14:27:47.133Z,31.86
2022-07-28T14:30:15.014Z,31.92
2022-07-28T14:32:42.680Z,32.28
2022-07-28T14:35:10.934Z,32.42
2022-07-28T14:38:23.213Z,32.76
2022-07-28T14:40:27.675Z,32.76
2022-07-28T14:42:55.425Z,32.85
2022-07-28T14:45:23.168Z,33.67
2022-07-28T14:47:50.775Z,32.93
2022-07-28T14:50:18.395Z,32.92
2022-07-28T14:52:47.508Z,32.56
2022-07-28T14:55:15.155Z,32.75
2022-07-28T14:57:52.083Z,32.84
2022-07-28T15:00:23.223Z,32.70
2022-07-28T15:02:51.691Z,32.72
2022-07-28T15:05:20.402Z,32.43
2022-07-28T15:07:51.862Z,32.75
2022-07-28T15:10:20.052Z,32.36
2022-07-28T15:12:47.893Z,31.93
2022-07-28T15:15:15.596Z,32.74
2022-07-28T15:17:43.390Z,32.94
2022-07-28T15:20:12.154Z,32.75
2022-07-28T15:22:39.772Z,32.14
2022-07-28T15:25:09.858Z,32.21
2022-07-28T15:27:41.619Z,32.05
2022-07-28T15:30:14.214Z,31.80
2022-07-28T15:32:56.384Z,32.16
2022-07-28T15:35:25.825Z,32.14
2022-07-28T15:37:53.444Z,32.07
2022-07-28T15:40:23.069Z,32.29
2022-07-28T15:42:51.224Z,31.69
2022-07-28T15:45:18.793Z,32.03
2022-07-28T15:47:46.356Z,31.76
2022-07-28T15:50:14.107Z,31.91
2022-07-28T15:52:41.761Z,31.62
2022-07-28T15:55:10.269Z,31.41
2022-07-28T15:57:39.622Z,31.54
2022-07-28T16:00:08.493Z,31.56
2022-07-28T16:02:36.709Z,31.70
2022-07-28T16:05:04.697Z,32.21
2022-07-28T16:07:35.053Z,32.03
2022-07-28T16:10:03.008Z,32.55
2022-07-28T16:12:31.009Z,32.58
2022-07-28T16:14:59.940Z,32.56
2022-07-28T16:17:27.626Z,33.12
2022-07-28T16:19:58.858Z,33.03
2022-07-28T16:22:30.199Z,32.96
2022-07-28T16:24:57.837Z,32.62
2022-07-28T16:27:25.593Z,32.92
2022-07-28T16:29:53.186Z,33.26
2022-07-28T16:32:22.116Z,32.94
2022-07-28T16:34:49.802Z,33.37
2022-07-28T16:37:19.543Z,33.71
2022-07-28T16:39:48.428Z,33.69
2022-07-28T16:42:16.828Z,34.10
2022-07-28T16:44:44.448Z,33.79
2022-07-28T16:47:15.350Z,34.15
2022-07-28T16:49:46.289Z,34.20
2022-07-28T16:52:14.721Z,34.53
2022-07-28T16:54:42.452Z,34.71
2022-07-28T16:57:10.154Z,34.46
2022-07-28T16:59:46.464Z,34.65
2022-07-28T17:02:16.983Z,34.81
2022-07-28T17:04:46.357Z,34.41
2022-07-28T17:07:14.353Z,34.73
2022-07-28T17:09:42.095Z,34.92
2022-07-28T17:12:10.122Z,34.65
2022-07-28T17:14:37.847Z,34.61
2022-07-28T17:17:06.326Z,34.54
2022-07-28T17:19:34.142Z,34.85
2022-07-28T17:22:06.845Z,34.97
2022-07-28T17:24:35.122Z,34.83
2022-07-28T17:27:36.691Z,34.86
2022-07-28T17:29:50.449Z,35.23
2022-07-28T17:32:18.340Z,35.10
2022-07-28T17:34:46.076Z,35.13
2022-07-28T17:37:15.363Z,35.32
2022-07-28T17:39:43.093Z,35.38
2022-07-28T17:42:10.862Z,35.59
2022-07-28T17:44:38.695Z,35.41
2022-07-28T17:47:07.468Z,35.40
2022-07-28T17:49:38.945Z,35.52
2022-07-28T17:52:09.787Z,36.23
2022-07-28T17:54:52.711Z,36.46
2022-07-28T17:57:21.939Z,35.98
2022-07-28T17:59:52.127Z,36.37
2022-07-28T18:02:20.030Z,36.49
2022-07-28T18:04:48.019Z,36.60
2022-07-28T18:07:17.061Z,36.43
2022-07-28T18:09:46.107Z,36.80
2022-07-28T18:12:13.818Z,36.46
2022-07-28T18:14:41.531Z,37.16
2022-07-28T18:17:09.486Z,37.26
2022-07-28T18:19:38.951Z,36.82
2022-07-28T18:22:09.860Z,37.02
2022-07-28T18:24:37.623Z,37.44
2022-07-28T18:27:07.051Z,37.53
2022-07-28T18:29:38.170Z,37.31
2022-07-28T18:32:07.838Z,37.63
2022-07-28T18:34:38.099Z,37.55
2022-07-28T18:37:05.751Z,37.74
2022-07-28T18:39:33.523Z,38.07
2022-07-28T18:42:01.283Z,38.54
2022-07-28T18:44:30.419Z,38.25
2022-07-28T18:46:59.535Z,38.54
2022-07-28T18:49:27.312Z,38.29
2022-07-28T18:51:55.118Z,38.62
2022-07-28T18:54:27.770Z,38.73
2022-07-28T18:56:56.032Z,38.81
2022-07-28T18:59:23.902Z,38.93
2022-07-28T19:01:53.142Z,38.83
2022-07-28T19:04:21.123Z,39.10
2022-07-28T19:06:48.898Z,38.97
2022-07-28T19:09:16.771Z,39.44
2022-07-28T19:11:46.432Z,39.27
2022-07-28T19:14:15.118Z,39.54
2022-07-28T19:16:43.619Z,39.74
2022-07-28T19:19:12.937Z,39.39
2022-07-28T19:21:43.274Z,39.72
2022-07-28T19:24:12.898Z,40.08
2022-07-28T19:26:41.901Z,40.03
2022-07-28T19:29:09.760Z,40.07
2022-07-28T19:31:37.518Z,40.25
2022-07-28T19:34:05.624Z,39.96
2022-07-28T19:36:34.770Z,40.28
2022-07-28T19:39:02.484Z,40.23
2022-07-28T19:41:31.594Z,40.06
2022-07-28T19:43:59.308Z,40.46
2022-07-28T19:46:27.123Z,40.52
2022-07-28T19:48:55.085Z,40.50
2022-07-28T19:51:22.915Z,40.31
2022-07-28T19:53:52.031Z,40.65
2022-07-28T19:56:20.403Z,40.69
2022-07-28T19:58:49.863Z,40.83
2022-07-28T20:01:18.818Z,40.77
2022-07-28T20:04:03.201Z,40.64
2022-07-28T20:06:33.219Z,40.92
2022-07-28T20:09:03.067Z,41.04
2022-07-28T20:11:32.675Z,40.84
2022-07-28T20:14:01.057Z,40.91
2022-07-28T20:16:28.822Z,40.95
2022-07-28T20:18:57.731Z,41.27
2022-07-28T20:21:26.161Z,41.21
2022-07-28T20:23:55.337Z,41.59
2022-07-28T20:26:26.051Z,41.71
2022-07-28T20:28:54.143Z,41.67
2022-07-28T20:31:21.963Z,41.33
2022-07-28T20:33:49.855Z,41.54
2022-07-28T20:36:17.848Z,41.97
2022-07-28T20:38:46.276Z,41.69
2022-07-28T20:41:14.094Z,41.82
2022-07-28T20:43:43.099Z,41.53
2022-07-28T20:46:10.799Z,41.77
2022-07-28T20:48:38.667Z,42.07
2022-07-28T20:51:06.541Z,42.13
2022-07-28T20:53:34.215Z,41.65
2022-07-28T20:56:01.859Z,41.76
2022-07-28T20:58:29.557Z,41.97
2022-07-28T21:00:59.292Z,41.67
2022-07-28T21:03:27.029Z,41.78
2022-07-28T21:05:54.719Z,42.23
2022-07-28T21:08:22.902Z,42.31
2022-07-28T21:10:51.562Z,42.19
2022-07-28T21:13:19.371Z,42.22
2022-07-28T21:15:47.012Z,42.15
2022-07-28T21:18:17.396Z,42.15
2022-07-28T21:20:45.050Z,42.02
2022-07-28T21:23:12.732Z,42.18
2022-07-28T21:25:40.398Z,42.13
2022-07-28T21:28:30.253Z,42.13
2022-07-28T21:30:57.882Z,42.47
2022-07-28T21:33:27.884Z,42.42
2022-07-28T21:35:55.706Z,42.49
2022-07-28T21:38:23.514Z,42.61
2022-07-28T21:40:51.490Z,42.38
2022-07-28T21:43:19.117Z,42.52
2022-07-28T21:45:48.054Z,42.72
2022-07-28T21:48:19.048Z,43.06
2022-07-28T21:50:48.056Z,42.83
2022-07-28T21:53:17.377Z,42.68
2022-07-28T21:55:45.627Z,42.32
2022-07-28T21:58:13.508Z,41.69
2022-07-28T22:00:41.304Z,41.69
2022-07-28T22:03:09.388Z,41.57
2022-07-28T22:05:37.086Z,41.56
2022-07-28T22:08:06.303Z,41.69
2022-07-28T22:10:33.973Z,41.37
2022-07-28T22:13:01.574Z,41.26
2022-07-28T22:15:29.523Z,41.30
2022-07-28T22:17:57.127Z,41.32
2022-07-28T22:20:24.786Z,41.36
2022-07-28T22:22:52.472Z,41.31
2022-07-28T22:25:21.446Z,41.40
2022-07-28T22:27:49.092Z,41.35
2022-07-28T22:30:16.995Z,41.32
2022-07-28T22:32:44.677Z,41.41
2022-07-28T22:35:12.554Z,41.59
2022-07-28T22:37:40.202Z,41.54
2022-07-28T22:40:08.934Z,41.78
2022-07-28T22:42:38.039Z,42.07
2022-07-28T22:45:06.458Z,42.04
2022-07-28T22:47:34.154Z,42.36
2022-07-28T22:50:02.016Z,42.25
2022-07-28T22:52:30.937Z,42.53
2022-07-28T22:54:58.669Z,42.74
2022-07-28T22:57:26.451Z,42.78
2022-07-28T22:59:56.281Z,43.46
2022-07-28T23:02:25.822Z,43.71
2022-07-28T23:04:53.975Z,43.80
2022-07-28T23:07:43.065Z,43.96
2022-07-28T23:10:11.127Z,44.06
2022-07-28T23:12:38.822Z,44.98
2022-07-28T23:15:09.244Z,45.37
2022-07-28T23:17:37.190Z,47.06
2022-07-28T23:20:06.001Z,48.64
2022-07-28T23:22:33.666Z,50.71
2022-07-28T23:25:01.508Z,51.31
2022-07-28T23:27:29.175Z,51.84
2022-07-28T23:29:56.853Z,52.01
2022-07-28T23:32:25.907Z,52.50
2022-07-28T23:34:53.613Z,53.01
2022-07-28T23:37:21.236Z,53.04
2022-07-28T23:39:49.596Z,52.19
2022-07-28T23:42:17.378Z,51.56
2022-07-28T23:44:45.132Z,52.14
2022-07-28T23:47:12.786Z,52.58
2022-07-28T23:49:41.918Z,52.72
2022-07-28T23:52:09.695Z,52.99
2022-07-28T23:54:37.358Z,53.15
2022-07-28T23:57:05.263Z,53.17
2022-07-28T23:59:32.852Z,53.23
